Time;durP1;ratioP1;P1;durP2;ratioP2;P2;SDS_P1;SDS_P2;PMS_P1;PMS_P2;Temp;Humidity;BMP_temperature;BMP_pressure;BME280_temperature;BME280_humidity;BME280_pressure;Samples;Min_cycle;Max_cycle;Signal;HPM_P1;HPM_P2
2022/04/08 00:01:34;;;;;;;11.15;7.97;;;;;;;9.76;75.42;97822.94;5048098;28;20049;-41
2022/04/08 00:04:00;;;;;;;12.45;8.23;;;;;;;9.78;75.57;97815.91;5047918;28;20142;-40
2022/04/08 00:06:26;;;;;;;12.07;8.07;;;;;;;9.82;75.36;97821.75;5048831;28;20052;-40
2022/04/08 00:08:51;;;;;;;13.60;8.82;;;;;;;9.85;74.66;97813.75;5051548;28;20051;-40
2022/04/08 00:11:17;;;;;;;12.82;8.82;;;;;;;9.89;74.32;97823.00;5065392;28;20108;-40
2022/04/08 00:13:43;;;;;;;17.95;8.93;;;;;;;9.91;73.98;97815.97;5052088;28;20040;-41
2022/04/08 00:16:09;;;;;;;10.90;8.18;;;;;;;9.96;73.88;97826.91;5068153;28;20479;-41
2022/04/08 00:18:37;;;;;;;13.45;8.10;;;;;;;9.99;73.03;97824.16;5060279;28;20041;-40
2022/04/08 00:21:03;;;;;;;15.65;9.75;;;;;;;10.05;72.99;97815.94;5052884;28;20045;-40
2022/04/08 00:23:29;;;;;;;12.88;8.98;;;;;;;9.99;71.74;97807.72;5059323;28;20098;-40
2022/04/08 00:25:55;;;;;;;12.05;7.97;;;;;;;10.11;71.31;97805.19;5070586;28;20534;-41
2022/04/08 00:28:21;;;;;;;11.85;7.32;;;;;;;10.18;70.75;97818.66;5054406;28;20044;-40
2022/04/08 00:30:47;;;;;;;11.60;7.50;;;;;;;10.27;69.75;97833.66;5054452;28;20118;-39
2022/04/08 00:33:13;;;;;;;12.90;7.82;;;;;;;10.30;69.46;97806.69;5068729;28;20516;-39
2022/04/08 00:35:38;;;;;;;9.57;5.95;;;;;;;10.32;67.71;97812.59;5071183;28;20521;-40
2022/04/08 00:38:04;;;;;;;13.20;7.28;;;;;;;10.41;67.05;97815.47;5067612;28;20036;-40
2022/04/08 00:40:30;;;;;;;11.30;6.38;;;;;;;10.44;66.63;97802.28;5055000;28;20044;-40
2022/04/08 00:42:56;;;;;;;8.85;6.82;;;;;;;10.47;66.41;97801.22;5062952;28;20118;-40
2022/04/08 00:45:21;;;;;;;9.18;6.93;;;;;;;10.45;65.57;97803.94;5055930;28;20048;-40
2022/04/08 00:47:48;;;;;;;12.88;6.68;;;;;;;10.40;65.92;97789.59;5063564;28;20044;-40
2022/04/08 00:50:14;;;;;;;12.20;7.10;;;;;;;10.39;65.91;97800.91;5059722;28;20591;-40
2022/04/08 00:52:41;;;;;;;10.25;5.80;;;;;;;10.31;65.51;97801.38;5056737;28;20159;-40
2022/04/08 00:55:08;;;;;;;9.85;6.88;;;;;;;10.25;66.38;97796.59;5069401;28;20467;-44
2022/04/08 00:57:34;;;;;;;11.25;6.82;;;;;;;10.12;66.29;97785.25;5066748;28;20048;-40
2022/04/08 01:00:05;;;;;;;9.50;6.30;;;;;;;10.16;66.12;97797.13;5064628;28;20045;-41
2022/04/08 01:02:31;;;;;;;7.20;5.70;;;;;;;10.21;65.50;97805.47;5050911;28;20044;-39
2022/04/08 01:04:57;;;;;;;8.68;6.40;;;;;;;10.19;65.43;97794.38;5053542;28;20790;-40
2022/04/08 01:07:23;;;;;;;8.73;5.50;;;;;;;10.13;65.28;97799.91;5062133;28;20050;-41
2022/04/08 01:09:51;;;;;;;8.32;6.05;;;;;;;10.15;64.80;97798.06;5050851;28;20037;-40
2022/04/08 01:12:17;;;;;;;9.70;5.75;;;;;;;9.95;64.65;97770.72;5049069;28;20044;-41
2022/04/08 01:14:42;;;;;;;7.32;4.53;;;;;;;10.14;64.92;97799.00;5057573;28;20041;-40
2022/04/08 01:17:08;;;;;;;8.70;5.28;;;;;;;10.18;64.68;97798.72;5054384;28;20048;-39
2022/04/08 01:19:34;;;;;;;8.90;5.55;;;;;;;10.26;63.61;97797.41;5050209;28;20588;-41
2022/04/08 01:21:59;;;;;;;9.95;6.18;;;;;;;10.26;63.86;97800.03;5063972;28;20467;-41
2022/04/08 01:24:27;;;;;;;7.70;5.80;;;;;;;10.22;63.88;97801.13;5070265;28;20047;-40
2022/04/08 01:26:53;;;;;;;9.00;5.45;;;;;;;10.11;63.57;97781.00;5058043;28;20099;-40
2022/04/08 01:29:18;;;;;;;8.55;6.10;;;;;;;10.18;63.04;97790.94;5055266;28;20044;-39
2022/04/08 01:31:45;;;;;;;10.05;5.57;;;;;;;10.14;63.31;97791.19;5069833;28;20060;-40
2022/04/08 01:34:12;;;;;;;8.75;5.70;;;;;;;10.10;63.18;97797.53;5062166;28;20040;-40
2022/04/08 01:36:37;;;;;;;8.13;5.65;;;;;;;10.06;63.52;97788.22;5068219;28;20455;-40
2022/04/08 01:39:05;;;;;;;10.73;5.93;;;;;;;10.08;62.91;97802.81;5068140;28;20048;-40
2022/04/08 01:41:31;;;;;;;10.02;5.18;;;;;;;10.08;62.81;97781.19;5057652;28;20162;-39
2022/04/08 01:43:57;;;;;;;8.10;5.68;;;;;;;10.06;62.69;97788.22;5061073;28;20089;-40
2022/04/08 01:46:23;;;;;;;8.55;5.03;;;;;;;10.06;62.85;97796.84;5061862;28;20505;-40
2022/04/08 01:48:53;;;;;;;8.43;5.97;;;;;;;10.04;63.00;97801.34;5049501;28;20032;-41
2022/04/08 01:51:19;;;;;;;;;;;;;;;10.03;62.83;97798.81;5049129;28;20032;-39
2022/04/08 01:53:44;;;;;;;7.40;4.80;;;;;;;10.02;62.56;97803.19;5067953;28;19938;-42
2022/04/08 01:56:10;;;;;;;7.78;5.20;;;;;;;10.01;62.53;97787.69;5052575;28;20041;-40
2022/04/08 01:58:35;;;;;;;9.02;5.63;;;;;;;10.00;62.75;97807.63;5047415;28;20523;-40
2022/04/08 02:01:01;;;;;;;9.30;5.40;;;;;;;10.03;61.74;97799.66;5049490;28;20141;-41
2022/04/08 02:03:28;;;;;;;6.75;5.18;;;;;;;10.03;61.74;97801.41;5051532;28;20053;-40
2022/04/08 02:05:53;;;;;;;9.15;4.97;;;;;;;10.02;61.92;97805.78;5069199;28;20147;-42
2022/04/08 02:08:19;;;;;;;7.85;4.95;;;;;;;10.07;61.43;97802.88;5067761;28;20515;-39
2022/04/08 02:10:45;;;;;;;9.68;5.00;;;;;;;10.09;61.41;97804.47;5067678;28;20028;-40
2022/04/08 02:13:11;;;;;;;5.53;4.38;;;;;;;10.13;61.08;97799.91;5057958;28;20132;-41
2022/04/08 02:15:37;;;;;;;7.60;4.50;;;;;;;10.16;61.22;97807.53;5064561;28;20135;-40
2022/04/08 02:18:04;;;;;;;8.30;5.10;;;;;;;10.19;60.65;97797.81;5062685;28;20119;-41
2022/04/08 02:20:30;;;;;;;14.23;5.07;;;;;;;10.22;60.75;97809.75;5039551;28;20041;-40
2022/04/08 02:22:58;;;;;;;8.60;4.88;;;;;;;10.22;60.54;97804.56;5066390;28;20068;-40
2022/04/08 02:25:25;;;;;;;6.75;4.85;;;;;;;10.22;60.56;97801.94;5053709;28;20059;-40
2022/04/08 02:27:51;;;;;;;7.35;5.20;;;;;;;10.23;60.51;97810.59;5063690;28;20131;-40
2022/04/08 02:30:17;;;;;;;9.35;5.53;;;;;;;10.21;60.55;97800.28;5055587;28;20381;-39
2022/04/08 02:32:43;;;;;;;6.53;4.28;;;;;;;10.24;60.41;97810.50;5050201;28;20037;-39
2022/04/08 02:35:09;;;;;;;9.60;4.55;;;;;;;10.24;59.91;97804.47;5048608;28;20568;-40
2022/04/08 02:37:35;;;;;;;9.38;5.10;;;;;;;10.27;59.51;97804.25;5049844;28;20036;-41
2022/04/08 02:40:00;;;;;;;8.50;5.07;;;;;;;10.19;59.65;97802.16;5047290;28;20048;-40
2022/04/08 02:42:30;;;;;;;10.55;4.72;;;;;;;10.26;59.73;97819.00;5048888;28;20697;-40
2022/04/08 02:44:56;;;;;;;;;;;;;;;10.26;59.63;97815.59;5049546;28;20044;-39
2022/04/08 02:47:21;;;;;;;4.95;3.63;;;;;;;10.08;59.74;97784.63;5059567;28;20281;-40
2022/04/08 02:49:47;;;;;;;10.57;4.82;;;;;;;10.20;59.15;97817.63;5052302;28;20125;-39
2022/04/08 02:52:13;;;;;;;9.23;4.45;;;;;;;10.14;59.60;97812.81;5059943;28;20043;-41
2022/04/08 02:54:39;;;;;;;12.43;4.43;;;;;;;10.09;59.95;97803.63;5066397;28;20052;-40
2022/04/08 02:57:04;;;;;;;11.68;5.28;;;;;;;10.05;59.99;97808.16;5058075;28;20056;-40
2022/04/08 02:59:30;;;;;;;11.00;4.03;;;;;;;10.03;59.40;97802.25;5046462;28;20056;-40
2022/04/08 03:01:56;;;;;;;6.15;4.53;;;;;;;10.03;59.66;97811.81;5058197;28;20076;-40
2022/04/08 03:04:22;;;;;;;7.53;4.60;;;;;;;10.01;59.83;97811.88;5064351;28;20503;-40
2022/04/08 03:06:48;;;;;;;8.02;5.15;;;;;;;10.00;59.73;97806.78;5055671;28;20049;-40
2022/04/08 03:09:13;;;;;;;11.45;4.65;;;;;;;9.82;59.83;97784.56;5047334;28;20037;-41
2022/04/08 03:11:39;;;;;;;7.18;4.75;;;;;;;10.01;59.67;97800.66;5048365;28;20085;-39
2022/04/08 03:14:05;;;;;;;7.35;4.47;;;;;;;10.05;58.84;97818.53;5053517;28;20044;-40
2022/04/08 03:16:31;;;;;;;7.25;4.93;;;;;;;10.14;58.20;97814.56;5066611;28;20086;-40
2022/04/08 03:18:57;;;;;;;7.95;4.28;;;;;;;10.04;58.58;97816.06;5061904;28;20044;-40
2022/04/08 03:21:23;;;;;;;8.43;4.22;;;;;;;10.17;58.03;97829.97;5048392;28;20036;-40
2022/04/08 03:23:49;;;;;;;9.35;4.47;;;;;;;10.17;57.88;97817.81;5048182;28;20033;-40
2022/04/08 03:26:15;;;;;;;12.60;4.55;;;;;;;10.17;58.25;97820.41;5053478;28;20736;-40
2022/04/08 03:28:42;;;;;;;10.27;4.68;;;;;;;10.20;57.98;97825.41;5054378;28;20420;-41
2022/04/08 03:31:09;;;;;;;9.55;4.65;;;;;;;10.21;57.99;97823.66;5049419;28;20033;-40
2022/04/08 03:33:37;;;;;;;11.30;4.90;;;;;;;10.22;58.30;97827.09;5054350;28;20040;-40
2022/04/08 03:36:04;;;;;;;7.88;4.22;;;;;;;10.10;57.00;97800.13;5047863;28;20421;-39
2022/04/08 03:38:30;;;;;;;6.90;3.80;;;;;;;10.31;57.02;97834.31;5029752;28;20045;-41
2022/04/08 03:40:56;;;;;;;12.50;4.55;;;;;;;10.33;57.36;97835.03;5049096;28;20044;-40
2022/04/08 03:43:22;;;;;;;6.82;4.10;;;;;;;10.34;56.34;97827.16;5050154;28;20531;-39
2022/04/08 03:45:47;;;;;;;7.93;3.63;;;;;;;10.39;56.19;97829.47;5050419;28;20088;-40
2022/04/08 03:48:17;;;;;;;7.93;4.30;;;;;;;10.43;56.51;97829.16;5063325;28;20587;-40
2022/04/08 03:50:44;;;;;;;6.30;4.68;;;;;;;10.48;56.79;97827.13;5066247;28;20141;-41
2022/04/08 03:53:12;;;;;;;7.28;3.90;;;;;;;10.50;56.23;97832.22;5068577;28;20476;-40
2022/04/08 03:55:39;;;;;;;6.35;3.97;;;;;;;10.43;55.88;97807.56;5070560;28;20040;-40
2022/04/08 03:58:05;;;;;;;8.30;4.15;;;;;;;10.48;55.63;97815.88;5051827;28;20056;-41
2022/04/08 04:00:31;;;;;;;10.75;4.18;;;;;;;10.52;55.60;97814.78;5069893;28;20047;-41
2022/04/08 04:02:56;;;;;;;7.80;4.13;;;;;;;10.70;55.46;97829.19;5060774;28;20045;-40
2022/04/08 04:05:22;;;;;;;5.35;3.83;;;;;;;10.73;55.42;97841.97;5053804;28;20094;-39
2022/04/08 04:07:48;;;;;;;7.43;4.07;;;;;;;10.76;54.84;97823.59;5051357;28;20041;-39
2022/04/08 04:10:14;;;;;;;7.00;3.95;;;;;;;10.82;55.01;97828.41;5051535;28;20060;-40
2022/04/08 04:12:42;;;;;;;5.82;4.15;;;;;;;10.87;54.79;97828.09;5052273;28;20539;-41
2022/04/08 04:15:09;;;;;;;7.53;4.57;;;;;;;10.97;53.79;97831.75;5050104;28;20045;-40
2022/04/08 04:17:35;;;;;;;6.20;3.80;;;;;;;11.04;53.54;97827.84;5051267;28;20037;-42
2022/04/08 04:20:01;;;;;;;6.53;4.05;;;;;;;11.10;53.44;97847.38;5032517;28;20044;-41
2022/04/08 04:22:26;;;;;;;7.05;4.00;;;;;;;11.10;53.11;97847.38;5054540;28;20466;-41
2022/04/08 04:24:52;;;;;;;6.55;4.03;;;;;;;11.19;53.52;97858.03;5050246;28;20087;-42
2022/04/08 04:27:18;;;;;;;5.57;3.85;;;;;;;11.19;52.56;97849.38;5051205;28;20053;-41
2022/04/08 04:29:43;;;;;;;6.80;4.30;;;;;;;11.23;52.46;97848.25;5063236;28;20094;-40
2022/04/08 04:32:09;;;;;;;7.20;4.15;;;;;;;11.11;52.20;97830.84;5063059;28;20464;-42
2022/04/08 04:34:36;;;;;;;7.35;3.45;;;;;;;11.16;52.06;97840.00;5049478;28;20064;-40
2022/04/08 04:37:04;;;;;;;7.85;4.00;;;;;;;11.32;52.22;97839.81;5060472;28;20040;-40
2022/04/08 04:39:30;;;;;;;10.02;4.13;;;;;;;11.36;52.16;97836.91;5065028;28;20402;-41
2022/04/08 04:41:56;;;;;;;6.03;3.92;;;;;;;11.29;52.23;97819.22;5049451;28;20033;-41
2022/04/08 04:44:21;;;;;;;6.85;4.22;;;;;;;11.40;52.17;97841.00;5050760;28;20566;-41
2022/04/08 04:46:47;;;;;;;6.15;4.15;;;;;;;11.39;52.03;97831.53;5050769;28;20541;-42
2022/04/08 04:49:13;;;;;;;8.70;4.43;;;;;;;11.42;52.22;97828.69;5050814;28;20075;-40
2022/04/08 04:51:39;;;;;;;6.43;3.95;;;;;;;11.41;51.58;97823.59;5050391;28;20037;-41
2022/04/08 04:54:05;;;;;;;8.02;4.00;;;;;;;11.48;51.59;97823.09;5049421;28;20124;-42
2022/04/08 04:56:31;;;;;;;7.30;4.00;;;;;;;11.55;51.12;97833.09;5050114;28;20099;-43
2022/04/08 04:58:56;;;;;;;6.18;4.20;;;;;;;11.49;51.12;97831.72;5047065;28;20057;-41
2022/04/08 05:01:22;;;;;;;7.90;4.60;;;;;;;11.49;50.85;97826.53;5031235;28;20476;-42
2022/04/08 05:03:48;;;;;;;5.30;3.45;;;;;;;11.56;50.69;97838.19;5052041;28;20127;-40
2022/04/08 05:06:14;;;;;;;6.03;4.15;;;;;;;11.60;50.55;97834.44;5060518;28;20855;-43
2022/04/08 05:08:39;;;;;;;5.57;3.55;;;;;;;11.67;50.66;97822.66;5051839;28;20040;-41
2022/04/08 05:11:05;;;;;;;9.45;3.97;;;;;;;11.71;49.97;97837.16;5050311;28;20036;-41
2022/04/08 05:13:32;;;;;;;7.47;4.35;;;;;;;11.73;49.90;97827.47;5048332;28;20090;-40
2022/04/08 05:15:58;;;;;;;7.15;4.22;;;;;;;11.80;49.95;97830.50;5051502;28;20054;-41
2022/04/08 05:18:24;;;;;;;8.65;3.70;;;;;;;11.84;49.42;97830.19;5050899;28;20045;-41
2022/04/08 05:20:52;;;;;;;7.03;4.07;;;;;;;12.05;49.02;97827.84;5048107;28;20041;-40
2022/04/08 05:23:25;;;;;;;8.77;3.60;;;;;;;12.12;48.95;97829.09;5049366;28;20425;-40
2022/04/08 05:25:51;;;;;;;10.52;4.25;;;;;;;12.19;48.68;97821.69;5054251;28;20047;-42
2022/04/08 05:28:17;;;;;;;9.07;3.80;;;;;;;12.40;48.21;97807.16;5052811;28;20036;-42
2022/04/08 05:30:43;;;;;;;8.68;4.15;;;;;;;12.58;47.81;97821.44;5051618;28;20063;-42
2022/04/08 05:33:08;;;;;;;5.95;4.03;;;;;;;12.58;47.27;97818.84;5049412;28;20099;-41
2022/04/08 05:35:34;;;;;;;6.38;3.80;;;;;;;12.47;47.24;97812.72;5049155;28;20044;-42
2022/04/08 05:38:00;;;;;;;10.15;4.05;;;;;;;12.49;47.16;97816.06;5059870;28;20040;-40
2022/04/08 05:40:25;;;;;;;8.35;3.83;;;;;;;12.56;47.40;97814.69;5059219;28;20079;-41
2022/04/08 05:42:51;;;;;;;5.63;3.95;;;;;;;12.56;46.86;97801.66;5048317;28;20509;-38
2022/04/08 05:45:18;;;;;;;7.85;3.80;;;;;;;12.68;46.39;97819.00;5049581;28;20044;-40
2022/04/08 05:47:50;;;;;;;7.57;3.88;;;;;;;12.71;46.33;97818.81;5048706;28;20040;-41
2022/04/08 05:50:18;;;;;;;7.75;3.97;;;;;;;12.70;45.93;97802.31;5053045;28;20033;-39
2022/04/08 05:52:47;;;;;;;5.25;3.22;;;;;;;12.71;45.57;97817.03;5053936;28;20149;-40
2022/04/08 05:55:13;;;;;;;4.85;3.50;;;;;;;12.87;45.64;97808.91;5052357;28;20040;-39
2022/04/08 05:57:42;;;;;;;7.63;3.92;;;;;;;13.01;45.05;97800.06;5046213;28;20544;-40
2022/04/08 06:00:13;;;;;;;7.25;3.90;;;;;;;13.44;44.68;97818.59;5054596;28;20049;-40
2022/04/08 06:02:47;;;;;;;7.10;4.18;;;;;;;13.55;44.10;97803.75;5047619;28;20155;-40
2022/04/08 06:05:15;;;;;;;8.13;4.03;;;;;;;13.77;43.68;97807.34;5046670;28;20069;-40
2022/04/08 06:07:59;;;;;;;7.32;3.50;;;;;;;13.86;42.75;97814.47;5047677;28;20484;-40
2022/04/08 06:10:26;;;;;;;9.50;3.75;;;;;;;14.05;42.54;97819.09;5048684;28;20037;-42
2022/04/08 06:12:53;;;;;;;8.23;3.97;;;;;;;14.39;42.04;97811.09;5045345;28;20041;-42
2022/04/08 06:15:19;;;;;;;6.05;3.72;;;;;;;14.88;40.75;97807.16;5048287;28;20456;-42
2022/04/08 06:17:46;;;;;;;5.68;3.70;;;;;;;15.71;39.40;97827.31;5047446;28;20036;-41
2022/04/08 06:20:16;;;;;;;5.68;3.35;;;;;;;16.00;38.40;97813.41;5048062;28;20582;-43
2022/04/08 06:22:42;;;;;;;7.80;4.00;;;;;;;16.61;37.69;97815.94;5030278;28;20049;-40
2022/04/08 06:25:09;;;;;;;7.65;4.22;;;;;;;17.03;36.24;97818.31;5047297;28;20437;-42
2022/04/08 06:27:36;;;;;;;6.80;3.55;;;;;;;17.14;35.54;97816.38;5048523;28;20045;-39
2022/04/08 06:30:04;;;;;;;8.38;3.80;;;;;;;17.04;35.91;97814.72;5048663;28;20040;-40
2022/04/08 06:32:29;;;;;;;9.77;4.40;;;;;;;16.99;35.66;97822.19;5046795;28;20037;-41
2022/04/08 06:34:55;;;;;;;6.32;3.88;;;;;;;16.84;36.08;97822.59;5048799;28;20051;-40
2022/04/08 06:37:26;;;;;;;9.93;4.00;;;;;;;16.63;36.42;97816.66;5048220;28;20135;-42
2022/04/08 06:39:52;;;;;;;8.70;3.83;;;;;;;16.39;36.53;97824.00;5048415;28;20036;-41
2022/04/08 06:42:18;;;;;;;11.23;4.75;;;;;;;16.17;36.94;97850.44;5048216;28;20032;-40
2022/04/08 06:44:44;;;;;;;12.70;4.55;;;;;;;15.85;37.22;97830.44;5048261;28;20437;-42
2022/04/08 06:47:09;;;;;;;6.68;4.32;;;;;;;15.94;37.58;97807.84;5047582;28;20045;-40
2022/04/08 06:49:35;;;;;;;9.18;4.18;;;;;;;16.10;37.01;97834.41;5047280;28;20028;-40
2022/04/08 06:52:01;;;;;;;11.18;5.22;;;;;;;16.24;37.05;97822.72;5046683;28;20045;-40
2022/04/08 06:54:28;;;;;;;10.18;5.10;;;;;;;16.63;36.64;97824.50;5046977;28;20052;-40
2022/04/08 06:56:54;;;;;;;7.80;4.45;;;;;;;16.76;36.02;97829.50;5047916;28;20059;-41
2022/04/08 06:59:20;;;;;;;8.00;4.35;;;;;;;16.97;35.38;97811.81;5045102;28;20053;-40
2022/04/08 07:01:46;;;;;;;8.88;4.85;;;;;;;17.17;35.55;97826.59;5047504;28;20110;-40
2022/04/08 07:04:12;;;;;;;12.68;5.18;;;;;;;17.66;34.28;97822.13;5046789;28;20106;-41
2022/04/08 07:06:38;;;;;;;10.70;4.90;;;;;;;17.76;34.53;97826.41;5048036;28;20064;-40
2022/04/08 07:09:03;;;;;;;10.85;4.57;;;;;;;17.26;34.41;97823.16;5030315;28;20064;-39
2022/04/08 07:11:29;;;;;;;11.18;5.03;;;;;;;17.00;34.97;97835.19;5047855;28;20132;-40
2022/04/08 07:13:55;;;;;;;10.18;5.18;;;;;;;16.93;34.83;97832.28;5047833;28;20041;-40
2022/04/08 07:16:21;;;;;;;10.25;4.90;;;;;;;17.05;34.95;97843.47;5038455;28;20138;-41
2022/04/08 07:18:46;;;;;;;14.32;4.93;;;;;;;16.66;35.33;97831.28;5026626;28;20049;-39
2022/04/08 07:21:12;;;;;;;12.18;4.80;;;;;;;16.31;35.78;97834.34;5039423;28;20505;-39
2022/04/08 07:23:38;;;;;;;9.60;4.60;;;;;;;15.97;36.17;97832.00;5047599;28;20428;-39
2022/04/08 07:26:04;;;;;;;11.07;4.22;;;;;;;15.66;36.91;97838.19;5047827;28;20500;-40
2022/04/08 07:28:29;;;;;;;8.98;4.10;;;;;;;15.40;37.17;97842.13;5047996;28;20040;-41
2022/04/08 07:30:55;;;;;;;8.38;4.45;;;;;;;15.39;37.31;97848.31;5047498;28;20033;-40
2022/04/08 07:33:21;;;;;;;6.80;4.32;;;;;;;15.65;37.06;97831.28;5047575;28;20076;-40
2022/04/08 07:35:46;;;;;;;9.07;4.63;;;;;;;15.86;36.60;97831.28;5045914;28;20072;-42
2022/04/08 07:38:12;;;;;;;10.52;4.78;;;;;;;15.88;36.28;97834.59;5046979;28;20504;-40
2022/04/08 07:40:38;;;;;;;8.05;4.90;;;;;;;15.84;36.18;97836.63;5047561;28;20116;-41
2022/04/08 07:43:04;;;;;;;9.00;4.50;;;;;;;16.18;35.98;97834.56;5047306;28;20044;-40
2022/04/08 07:45:30;;;;;;;11.88;5.35;;;;;;;16.34;35.68;97824.41;5026514;28;20052;-43
2022/04/08 07:47:58;;;;;;;13.18;5.25;;;;;;;16.58;35.53;97818.81;5027991;28;20061;-40
2022/04/08 07:50:26;;;;;;;6.93;4.60;;;;;;;16.68;35.08;97818.84;5027108;28;20037;-40
2022/04/08 07:52:52;;;;;;;10.48;5.07;;;;;;;16.43;35.33;97831.47;5046505;28;20064;-41
2022/04/08 07:55:20;;;;;;;12.73;5.03;;;;;;;16.41;35.75;97827.31;5047486;28;20052;-39
2022/04/08 07:57:51;;;;;;;8.80;5.28;;;;;;;16.31;35.56;97819.44;5077081;28;20135;-42
2022/04/08 08:00:31;;;;;;;8.68;5.28;;;;;;;16.13;35.58;97828.06;5079540;28;20171;-40
2022/04/08 08:02:57;;;;;;;10.18;4.90;;;;;;;16.01;35.83;97819.47;5042610;28;20041;-40
2022/04/08 08:05:23;;;;;;;10.63;5.45;;;;;;;16.08;36.24;97837.16;5047618;28;20091;-41
2022/04/08 08:07:55;;;;;;;9.30;5.10;;;;;;;15.85;36.13;97817.34;5046977;28;20040;-40
2022/04/08 08:10:22;;;;;;;10.10;5.50;;;;;;;15.79;36.46;97844.06;5046503;28;20029;-40
2022/04/08 08:12:48;;;;;;;11.73;5.25;;;;;;;15.55;36.72;97801.59;5046354;28;20041;-43
2022/04/08 08:15:15;;;;;;;13.32;5.90;;;;;;;15.62;36.79;97831.56;5047549;28;20128;-42
2022/04/08 08:17:41;;;;;;;8.15;5.43;;;;;;;15.63;36.93;97828.81;5028489;28;20045;-41
2022/04/08 08:20:08;;;;;;;9.02;5.03;;;;;;;15.68;36.97;97826.63;5045935;28;20040;-41
2022/04/08 08:22:35;;;;;;;10.20;5.40;;;;;;;15.62;36.55;97811.44;5046536;28;20072;-41
2022/04/08 08:25:01;;;;;;;9.98;5.35;;;;;;;15.54;37.12;97832.22;5045806;28;20353;-40
2022/04/08 08:27:28;;;;;;;12.20;5.55;;;;;;;15.69;36.63;97822.22;5046988;28;20045;-42
2022/04/08 08:29:54;;;;;;;10.07;5.78;;;;;;;16.05;36.62;97826.13;5047281;28;20045;-41
2022/04/08 08:32:21;;;;;;;11.25;5.38;;;;;;;16.15;36.32;97823.53;5046796;28;20452;-42
2022/04/08 08:34:47;;;;;;;7.25;4.95;;;;;;;15.87;36.49;97812.78;5046936;28;20045;-40
2022/04/08 08:37:13;;;;;;;8.75;5.32;;;;;;;15.63;36.69;97826.19;5049825;28;20041;-42
2022/04/08 08:39:39;;;;;;;11.13;5.28;;;;;;;15.48;36.91;97826.63;5050558;28;20051;-40
2022/04/08 08:42:06;;;;;;;9.82;5.35;;;;;;;15.55;36.89;97809.44;5050647;28;20455;-39
2022/04/08 08:44:32;;;;;;;11.25;5.35;;;;;;;15.73;36.99;97823.63;5066074;28;20131;-40
2022/04/08 08:46:58;;;;;;;16.25;6.95;;;;;;;15.59;36.65;97782.06;5049504;28;20518;-41
2022/04/08 08:49:25;;;;;;;11.88;5.90;;;;;;;15.78;36.91;97808.34;5049377;28;20040;-40
2022/04/08 08:52:02;;;;;;;12.07;5.95;;;;;;;15.73;36.98;97801.81;5049559;28;20064;-40
2022/04/08 08:54:28;;;;;;;10.50;5.75;;;;;;;15.83;37.02;97795.69;5050426;28;20063;-40
2022/04/08 08:56:54;;;;;;;7.95;5.45;;;;;;;16.16;36.69;97801.59;5049327;28;20131;-42
2022/04/08 08:59:20;;;;;;;9.00;5.38;;;;;;;16.30;36.80;97799.41;5048282;28;20053;-41
2022/04/08 09:01:45;;;;;;;9.82;5.32;;;;;;;16.36;36.45;97805.91;5050367;28;20060;-40
2022/04/08 09:04:11;;;;;;;11.90;6.20;;;;;;;16.55;36.40;97795.47;5032239;28;20457;-41
2022/04/08 09:06:41;;;;;;;10.45;5.80;;;;;;;16.48;35.70;97797.81;5050412;28;20083;-42
2022/04/08 09:09:07;;;;;;;11.18;6.15;;;;;;;16.57;35.55;97803.19;5050352;28;20424;-43
2022/04/08 09:11:33;;;;;;;12.27;6.43;;;;;;;16.33;35.84;97770.28;5050262;28;20039;-41
2022/04/08 09:14:03;;;;;;;11.68;7.03;;;;;;;16.50;35.45;97785.38;5049781;28;20041;-41
2022/04/08 09:16:35;;;;;;;13.30;6.45;;;;;;;16.59;35.36;97775.88;5050042;28;20045;-40
2022/04/08 09:19:11;;;;;;;13.95;7.07;;;;;;;16.82;34.90;97779.91;5049717;28;20504;-40
2022/04/08 09:21:37;;;;;;;9.02;6.70;;;;;;;16.93;35.19;97781.56;5049976;28;20048;-41
2022/04/08 09:24:07;;;;;;;12.82;7.25;;;;;;;16.81;34.72;97765.13;5049679;28;20178;-40
2022/04/08 09:26:36;;;;;;;13.95;6.55;;;;;;;16.84;34.34;97774.53;5048484;28;20032;-41
2022/04/08 09:29:04;;;;;;;14.35;7.13;;;;;;;16.95;34.32;97761.28;5049624;28;20073;-42
2022/04/08 09:31:30;;;;;;;11.73;6.53;;;;;;;16.88;33.85;97781.16;5048627;28;20037;-42
2022/04/08 09:33:55;;;;;;;12.77;6.50;;;;;;;16.63;34.13;97777.28;5049568;28;20090;-42
2022/04/08 09:36:27;;;;;;;14.00;7.38;;;;;;;16.52;34.38;97766.88;5049707;28;20051;-41
2022/04/08 09:38:53;;;;;;;10.50;6.05;;;;;;;16.43;34.09;97744.91;5049683;28;20118;-41
2022/04/08 09:41:19;;;;;;;11.40;7.07;;;;;;;16.30;34.29;97756.63;5049542;28;20068;-40
2022/04/08 09:43:45;;;;;;;12.60;6.93;;;;;;;16.38;34.38;97769.91;5049070;28;20540;-41
2022/04/08 09:46:17;;;;;;;12.77;6.90;;;;;;;16.32;34.47;97752.09;5049004;28;20056;-40
2022/04/08 09:48:44;;;;;;;12.93;6.75;;;;;;;16.67;34.13;97772.59;5049201;28;20045;-40
2022/04/08 09:51:20;;;;;;;10.38;6.40;;;;;;;16.59;34.10;97765.38;5047503;28;20032;-41
2022/04/08 09:54:00;;;;;;;12.15;6.63;;;;;;;16.65;33.77;97758.75;5049115;28;20041;-40
2022/04/08 09:56:27;;;;;;;14.50;6.30;;;;;;;16.68;34.04;97758.50;5049353;28;20175;-42
2022/04/08 09:59:14;;;;;;;12.18;6.68;;;;;;;16.50;33.42;97772.25;5047259;28;20053;-41
2022/04/08 10:01:46;;;;;;;13.55;7.50;;;;;;;16.39;33.82;97751.41;5031574;28;20076;-41
2022/04/08 10:04:12;;;;;;;10.88;6.45;;;;;;;16.43;33.77;97781.63;5080449;28;20037;-40
2022/04/08 10:06:39;;;;;;;11.05;7.00;;;;;;;16.45;33.90;97750.84;5049130;28;20091;-41
2022/04/08 10:09:07;;;;;;;12.95;6.53;;;;;;;16.40;33.92;97753.06;5049032;28;20503;-41
2022/04/08 10:11:34;;;;;;;9.32;5.93;;;;;;;16.23;34.43;97753.72;5048749;28;20068;-44
2022/04/08 10:14:00;;;;;;;12.50;6.60;;;;;;;16.35;34.58;97765.75;5051448;28;20044;-42
2022/04/08 10:16:26;;;;;;;13.40;6.85;;;;;;;16.34;34.44;97740.47;5048777;28;20037;-40
2022/04/08 10:18:54;;;;;;;9.68;5.78;;;;;;;16.54;34.51;97765.78;5048753;28;20041;-41
2022/04/08 10:21:20;;;;;;;14.55;6.25;;;;;;;16.63;34.38;97742.34;5079759;28;20045;-40
2022/04/08 10:23:53;;;;;;;9.25;5.60;;;;;;;16.81;34.29;97731.00;5048784;28;20041;-40
2022/04/08 10:26:22;;;;;;;13.10;6.28;;;;;;;17.18;33.75;97740.78;5031031;28;20469;-40
2022/04/08 10:28:49;;;;;;;9.30;5.47;;;;;;;17.48;33.18;97731.88;5048829;28;20512;-41
2022/04/08 10:31:27;;;;;;;16.92;5.80;;;;;;;17.63;33.08;97744.44;5030671;28;20060;-42
2022/04/08 10:33:53;;;;;;;8.13;5.20;;;;;;;17.52;32.93;97756.88;5047198;28;20037;-43
2022/04/08 10:36:30;;;;;;;8.88;4.80;;;;;;;17.16;33.55;97768.97;5047919;28;20574;-42
2022/04/08 10:39:19;;;;;;;9.75;5.38;;;;;;;16.73;34.45;97745.81;5048531;28;20037;-42
2022/04/08 10:41:56;;;;;;;11.95;5.95;;;;;;;16.67;34.60;97738.47;5048234;28;20426;-41
2022/04/08 10:44:39;;;;;;;9.13;5.15;;;;;;;16.58;34.69;97739.28;5047261;28;20037;-40
2022/04/08 10:47:14;;;;;;;9.88;5.00;;;;;;;16.58;34.79;97742.72;5048007;28;20094;-43
2022/04/08 10:49:52;;;;;;;9.57;5.30;;;;;;;16.56;34.84;97743.81;5047170;28;20039;-42
2022/04/08 10:52:22;;;;;;;11.23;5.50;;;;;;;16.72;34.74;97747.59;5048697;28;20048;-41
2022/04/08 10:54:49;;;;;;;7.72;4.75;;;;;;;16.70;34.91;97738.19;5046956;28;20131;-43
2022/04/08 10:57:26;;;;;;;7.07;4.15;;;;;;;16.53;35.11;97747.56;5046761;28;20041;-42
2022/04/08 10:59:52;;;;;;;8.70;4.63;;;;;;;16.48;35.14;97753.22;5044284;28;20064;-41
2022/04/08 11:02:19;;;;;;;9.02;5.32;;;;;;;16.79;35.07;97745.25;5047647;28;20135;-42
2022/04/08 11:04:44;;;;;;;10.50;5.22;;;;;;;17.11;34.44;97735.28;5032573;28;20040;-42
2022/04/08 11:07:11;;;;;;;10.68;4.82;;;;;;;17.32;34.36;97727.22;5047036;28;20048;-41
2022/04/08 11:09:37;;;;;;;13.57;5.35;;;;;;;17.21;34.16;97725.59;5046094;28;20045;-41
2022/04/08 11:12:03;;;;;;;12.60;5.20;;;;;;;17.38;34.07;97725.81;5046848;28;20725;-41
2022/04/08 11:14:29;;;;;;;9.35;5.57;;;;;;;17.57;34.09;97728.38;5026816;28;20064;-40
2022/04/08 11:16:55;;;;;;;13.32;6.53;;;;;;;17.82;34.10;97724.28;5041976;28;20131;-41
2022/04/08 11:19:22;;;;;;;10.32;6.07;;;;;;;17.85;33.75;97722.19;5047095;28;20060;-42
2022/04/08 11:21:48;;;;;;;12.85;6.00;;;;;;;18.19;33.60;97725.88;5046582;28;20045;-42
2022/04/08 11:24:16;;;;;;;14.27;6.55;;;;;;;18.42;33.27;97717.56;5046611;28;20052;-40
2022/04/08 11:26:52;;;;;;;11.40;6.13;;;;;;;18.28;33.50;97715.44;5047325;28;20072;-41
2022/04/08 11:29:21;;;;;;;10.88;6.35;;;;;;;18.26;33.77;97710.34;5060164;28;20509;-40
2022/04/08 11:31:48;;;;;;;9.27;5.82;;;;;;;18.16;34.17;97725.34;5046684;28;20416;-41